Time;durP1;ratioP1;P1;durP2;ratioP2;P2;SDS_P1;SDS_P2;PMS_P1;PMS_P2;Temp;Humidity;BMP_temperature;BMP_pressure;BME280_temperature;BME280_humidity;BME280_pressure;Samples;Min_cycle;Max_cycle;Signal;HPM_P1;HPM_P2
2022/05/08 00:02:24;;;;;;;8.82;3.53;;;19.20;55.60;;;;;;4989488;28;95858;-63
2022/05/08 00:04:51;;;;;;;6.88;2.97;;;19.10;55.50;;;;;;4988601;28;95912;-63
2022/05/08 00:07:18;;;;;;;7.07;3.47;;;19.10;55.40;;;;;;4972492;28;92896;-63
2022/05/08 00:09:44;;;;;;;6.57;3.00;;;19.10;55.40;;;;;;4990344;28;92844;-65
2022/05/08 00:12:11;;;;;;;6.00;3.03;;;19.10;55.40;;;;;;4990187;28;93068;-64
2022/05/08 00:14:38;;;;;;;8.52;3.28;;;19.10;55.30;;;;;;4972299;28;95209;-65
2022/05/08 00:17:04;;;;;;;9.13;2.95;;;19.10;55.30;;;;;;4972244;28;93176;-66
2022/05/08 00:19:33;;;;;;;5.35;2.53;;;19.10;55.40;;;;;;4990372;28;92039;-65
2022/05/08 00:21:59;;;;;;;8.35;3.10;;;19.10;55.30;;;;;;4972397;28;93725;-65
2022/05/08 00:24:25;;;;;;;5.18;2.90;;;19.10;55.30;;;;;;4989905;28;92780;-65
2022/05/08 00:26:51;;;;;;;7.18;2.88;;;19.10;55.30;;;;;;4988915;28;95521;-66
2022/05/08 00:29:16;;;;;;;7.07;3.05;;;19.10;55.30;;;;;;4990408;28;92555;-65
2022/05/08 00:31:42;;;;;;;7.10;3.05;;;19.10;55.30;;;;;;4990126;28;93616;-66
2022/05/08 00:34:09;;;;;;;7.38;2.85;;;19.10;55.30;;;;;;4990087;28;92670;-65
2022/05/08 00:36:35;;;;;;;6.05;2.90;;;19.10;55.30;;;;;;4990057;28;92627;-66
2022/05/08 00:39:00;;;;;;;7.00;2.78;;;19.10;56.20;;;;;;4971132;28;92549;-66
2022/05/08 00:41:26;;;;;;;6.82;2.70;;;19.10;55.20;;;;;;4990163;28;93206;-65
2022/05/08 00:43:52;;;;;;;9.40;3.10;;;19.10;55.20;;;;;;4989413;28;92619;-65
2022/05/08 00:46:18;;;;;;;7.68;2.80;;;19.00;55.10;;;;;;4990654;28;92557;-64
2022/05/08 00:48:44;;;;;;;8.48;3.30;;;19.00;55.10;;;;;;4989793;28;92657;-65
2022/05/08 00:51:11;;;;;;;6.57;2.85;;;19.00;55.10;;;;;;4988017;28;95746;-65
2022/05/08 00:53:48;;;;;;;6.88;2.80;;;19.00;55.00;;;;;;4989119;28;94975;-65
2022/05/08 00:56:15;;;;;;;7.93;2.80;;;19.00;55.00;;;;;;4989972;28;92741;-66
2022/05/08 00:58:43;;;;;;;6.80;2.67;;;19.00;55.00;;;;;;4989581;28;92452;-65
2022/05/08 01:01:09;;;;;;;6.55;2.80;;;19.00;55.00;;;;;;4988844;28;93466;-65
2022/05/08 01:03:35;;;;;;;8.70;3.60;;;19.00;55.00;;;;;;4989540;28;93060;-65
2022/05/08 01:06:10;;;;;;;6.70;2.55;;;19.00;54.90;;;;;;4989773;28;92900;-66
2022/05/08 01:08:37;;;;;;;8.32;3.28;;;19.00;54.90;;;;;;4989919;28;91915;-65
2022/05/08 01:11:06;;;;;;;7.88;3.00;;;19.00;54.90;;;;;;4989135;28;92537;-65
2022/05/08 01:13:32;;;;;;;5.45;3.08;;;19.00;54.90;;;;;;4989706;28;93002;-65
2022/05/08 01:15:58;;;;;;;9.10;3.22;;;19.00;54.90;;;;;;4988863;28;95019;-65
2022/05/08 01:18:24;;;;;;;9.30;3.30;;;19.00;54.80;;;;;;4971622;28;93288;-65
2022/05/08 01:20:50;;;;;;;9.73;3.17;;;19.00;54.80;;;;;;4989353;28;92966;-66
2022/05/08 01:23:18;;;;;;;7.18;2.80;;;19.00;54.70;;;;;;4988675;28;92849;-66
2022/05/08 01:25:54;;;;;;;8.35;2.85;;;19.00;54.80;;;;;;4989737;28;93056;-65
2022/05/08 01:28:20;;;;;;;9.20;3.25;;;19.00;54.70;;;;;;4989447;28;92574;-64
2022/05/08 01:30:48;;;;;;;7.30;3.00;;;18.90;54.70;;;;;;4989429;28;92927;-65
2022/05/08 01:33:14;;;;;;;8.77;2.92;;;18.90;54.60;;;;;;4989652;28;92131;-65
2022/05/08 01:35:40;;;;;;;8.23;3.10;;;19.00;54.70;;;;;;4989269;28;92513;-64
2022/05/08 01:38:07;;;;;;;7.65;2.80;;;18.90;54.60;;;;;;4989055;28;93247;-65
2022/05/08 01:40:33;;;;;;;6.15;3.00;;;19.00;54.70;;;;;;4988098;28;95497;-65
2022/05/08 01:42:59;;;;;;;9.05;2.97;;;18.90;54.70;;;;;;4987825;28;95943;-65
2022/05/08 01:45:25;;;;;;;7.75;2.97;;;18.90;54.60;;;;;;4989201;28;93103;-65
2022/05/08 01:50:36;;;;;;;7.43;2.60;;;18.90;54.60;;;;;;4989934;28;93065;-65
2022/05/08 01:53:02;;;;;;;9.27;2.70;;;18.90;54.60;;;;;;4988583;28;92837;-64
2022/05/08 01:55:28;;;;;;;9.57;3.10;;;18.90;54.60;;;;;;4989700;28;92783;-64
2022/05/08 01:57:53;;;;;;;7.68;2.90;;;18.90;54.50;;;;;;4988756;28;91808;-65
2022/05/08 02:00:21;;;;;;;8.43;2.83;;;18.90;54.50;;;;;;4971050;28;95743;-65
2022/05/08 02:02:48;;;;;;;7.00;2.75;;;18.90;54.50;;;;;;4988685;28;93861;-64
2022/05/08 02:05:18;;;;;;;8.93;2.90;;;18.90;54.40;;;;;;4991770;28;94879;-64
2022/05/08 02:07:45;;;;;;;7.35;3.30;;;18.90;54.50;;;;;;4992757;28;92512;-65
2022/05/08 02:10:12;;;;;;;7.72;2.75;;;18.90;54.50;;;;;;4973930;28;94262;-64
2022/05/08 02:12:38;;;;;;;6.32;2.47;;;18.90;54.50;;;;;;4992959;28;92587;-65
2022/05/08 02:15:06;;;;;;;8.63;2.75;;;18.90;54.40;;;;;;4993502;28;92522;-64
2022/05/08 02:17:31;;;;;;;7.32;3.00;;;18.80;55.30;;;;;;4974372;28;93001;-65
2022/05/08 02:19:57;;;;;;;8.60;2.95;;;18.80;54.40;;;;;;4992528;28;93067;-64
2022/05/08 02:22:23;;;;;;;6.30;2.58;;;18.80;54.30;;;;;;4993186;28;93902;-64
2022/05/08 02:24:49;;;;;;;10.10;2.97;;;18.80;54.30;;;;;;4992840;28;92702;-64
2022/05/08 02:27:15;;;;;;;8.05;3.05;;;18.90;54.40;;;;;;4974271;28;93249;-64
2022/05/08 02:29:41;;;;;;;8.13;2.60;;;18.80;54.30;;;;;;4991008;28;95606;-65
2022/05/08 02:32:06;;;;;;;7.72;2.70;;;18.80;54.30;;;;;;4992175;28;95143;-65
2022/05/08 02:34:32;;;;;;;7.35;2.67;;;18.80;54.20;;;;;;4993071;28;92961;-65
2022/05/08 02:36:57;;;;;;;8.65;3.20;;;18.80;54.20;;;;;;4993225;28;92928;-65
2022/05/08 02:39:23;;;;;;;7.63;2.75;;;18.80;54.20;;;;;;4992281;28;92756;-65
2022/05/08 02:41:50;;;;;;;6.18;2.70;;;18.80;54.20;;;;;;4973964;28;93734;-65
2022/05/08 02:44:16;;;;;;;8.48;2.83;;;18.80;54.20;;;;;;4992548;28;92511;-64
2022/05/08 02:46:42;;;;;;;6.68;2.85;;;18.80;54.20;;;;;;4992989;28;91742;-65
2022/05/08 02:49:08;;;;;;;8.00;2.67;;;18.80;54.20;;;;;;4992256;28;92907;-65
2022/05/08 02:51:33;;;;;;;8.35;2.95;;;18.80;54.10;;;;;;4973562;28;94947;-65
2022/05/08 02:53:59;;;;;;;6.30;2.55;;;18.80;55.10;;;;;;4990158;28;94897;-64
2022/05/08 02:59:10;;;;;;;10.70;3.00;;;18.80;54.10;;;;;;4991393;28;92677;-65
2022/05/08 03:01:36;;;;;;;9.55;2.95;;;18.80;54.10;;;;;;4991029;28;92984;-65
2022/05/08 03:04:01;;;;;;;8.20;2.92;;;18.80;54.10;;;;;;4989800;28;92512;-65
2022/05/08 03:06:27;;;;;;;7.20;2.47;;;18.70;54.00;;;;;;4990689;28;92881;-65
2022/05/08 03:08:53;;;;;;;9.77;3.10;;;18.70;54.00;;;;;;4990823;28;92943;-65
2022/05/08 03:11:29;;;;;;;9.23;2.90;;;18.70;54.00;;;;;;4992124;28;92933;-64
2022/05/08 03:13:57;;;;;;;11.80;3.35;;;18.70;54.00;;;;;;4990852;28;92693;-65
2022/05/08 03:16:23;;;;;;;7.30;2.75;;;18.70;54.00;;;;;;4990751;28;93154;-64
2022/05/08 03:18:48;;;;;;;8.98;2.72;;;18.70;54.00;;;;;;4990510;28;96821;-65
2022/05/08 03:21:15;;;;;;;8.98;2.92;;;18.70;53.90;;;;;;4990814;28;95059;-65
2022/05/08 03:23:42;;;;;;;8.68;2.80;;;18.70;53.90;;;;;;4991607;28;92546;-65
2022/05/08 03:26:08;;;;;;;6.40;2.65;;;18.70;53.90;;;;;;4991190;28;92938;-65
2022/05/08 03:28:35;;;;;;;8.90;2.90;;;18.70;54.00;;;;;;4973014;28;93081;-65
2022/05/08 03:31:04;;;;;;;6.30;2.75;;;18.70;53.90;;;;;;4990700;28;93791;-64
2022/05/08 03:33:31;;;;;;;10.07;3.03;;;18.70;53.80;;;;;;4991544;28;92556;-65
2022/05/08 03:35:57;;;;;;;7.35;2.90;;;18.70;53.90;;;;;;4991035;28;91833;-65
2022/05/08 03:38:23;;;;;;;7.20;2.83;;;18.70;53.90;;;;;;4991133;28;92666;-65
2022/05/08 03:40:49;;;;;;;8.15;2.90;;;18.70;53.90;;;;;;4991112;28;93190;-64
2022/05/08 03:43:15;;;;;;;7.25;2.60;;;18.70;53.90;;;;;;4989816;28;95174;-64
2022/05/08 03:45:40;;;;;;;8.52;2.97;;;18.70;53.90;;;;;;4991415;28;92589;-64
2022/05/08 03:48:06;;;;;;;6.78;2.42;;;18.70;53.80;;;;;;4990777;28;93271;-65
2022/05/08 03:50:32;;;;;;;9.75;3.25;;;18.70;53.90;;;;;;4971739;28;94003;-65
2022/05/08 03:52:59;;;;;;;8.80;2.88;;;18.70;53.80;;;;;;4990678;28;92587;-65
2022/05/08 03:55:25;;;;;;;10.13;2.90;;;18.60;53.80;;;;;;4989942;28;92521;-65
2022/05/08 03:57:51;;;;;;;7.78;2.78;;;18.70;53.90;;;;;;4990678;28;93101;-65
2022/05/08 04:00:17;;;;;;;7.22;2.50;;;18.60;53.90;;;;;;4990965;28;92872;-66
2022/05/08 04:02:43;;;;;;;7.63;2.72;;;18.60;53.80;;;;;;4990521;28;92482;-65
2022/05/08 04:05:10;;;;;;;7.55;2.70;;;18.60;53.80;;;;;;4990293;28;92849;-65
2022/05/08 04:07:40;;;;;;;7.13;2.72;;;18.60;53.90;;;;;;4989894;28;95681;-65
2022/05/08 04:10:07;;;;;;;7.85;2.55;;;18.60;53.80;;;;;;4989461;28;95168;-65
2022/05/08 04:12:36;;;;;;;9.75;2.90;;;18.60;53.80;;;;;;4991339;28;93175;-65
2022/05/08 04:15:01;;;;;;;7.18;2.88;;;18.60;53.80;;;;;;4990604;28;93070;-64
2022/05/08 04:17:28;;;;;;;8.85;2.90;;;18.60;53.70;;;;;;4990700;28;92955;-65
2022/05/08 04:19:55;;;;;;;6.45;2.20;;;18.60;53.80;;;;;;4990199;28;92661;-65
2022/05/08 04:25:07;;;;;;;7.25;2.53;;;18.60;53.70;;;;;;4991245;28;92118;-66
2022/05/08 04:27:37;;;;;;;9.85;2.72;;;18.60;53.80;;;;;;4990222;28;93181;-66
2022/05/08 04:30:04;;;;;;;7.13;2.55;;;18.60;53.70;;;;;;4989637;28;93976;-65
2022/05/08 04:32:29;;;;;;;7.03;2.72;;;18.50;53.70;;;;;;4989605;28;94952;-66
2022/05/08 04:34:55;;;;;;;7.97;2.58;;;18.60;53.80;;;;;;4990912;28;92901;-66
2022/05/08 04:37:20;;;;;;;9.77;3.42;;;18.50;53.70;;;;;;4972148;28;94916;-65
2022/05/08 04:39:46;;;;;;;6.65;2.63;;;18.50;53.60;;;;;;4990024;28;92585;-66
2022/05/08 04:42:11;;;;;;;6.82;2.58;;;18.60;53.70;;;;;;4989642;28;97957;-66
2022/05/08 04:44:37;;;;;;;7.95;2.38;;;18.50;53.70;;;;;;4972762;28;92476;-66
2022/05/08 04:47:03;;;;;;;7.72;2.67;;;18.50;53.70;;;;;;4990674;28;93081;-65
2022/05/08 04:49:29;;;;;;;7.18;2.55;;;18.50;53.70;;;;;;4972489;28;94815;-66
2022/05/08 04:51:55;;;;;;;6.40;2.40;;;18.50;53.70;;;;;;4989650;28;92772;-65
2022/05/08 04:54:23;;;;;;;6.82;2.45;;;18.50;53.80;;;;;;4989789;28;92564;-65
2022/05/08 04:56:48;;;;;;;7.88;2.80;;;18.60;53.70;;;;;;4988442;28;96176;-65
2022/05/08 04:59:15;;;;;;;10.43;2.78;;;18.60;53.70;;;;;;4989846;28;95309;-65
2022/05/08 05:01:40;;;;;;;5.53;2.50;;;18.50;54.60;;;;;;4990555;28;92561;-65
2022/05/08 05:04:06;;;;;;;7.60;2.70;;;18.50;53.70;;;;;;4971942;28;92674;-65
2022/05/08 05:06:32;;;;;;;8.40;2.58;;;18.50;53.70;;;;;;4990459;28;93018;-65
2022/05/08 05:08:58;;;;;;;7.60;2.78;;;18.50;53.60;;;;;;4990242;28;93393;-65
2022/05/08 05:11:23;;;;;;;7.07;2.70;;;18.50;53.50;;;;;;4990321;28;92874;-65
2022/05/08 05:13:49;;;;;;;6.88;2.83;;;18.50;53.60;;;;;;4990226;28;92273;-66
2022/05/08 05:16:14;;;;;;;7.22;2.85;;;18.50;53.60;;;;;;4988920;28;93053;-65
2022/05/08 05:18:40;;;;;;;10.00;2.75;;;18.50;53.70;;;;;;4990201;28;96534;-64
2022/05/08 05:21:05;;;;;;;6.38;2.55;;;18.50;53.50;;;;;;4971069;28;95426;-65
2022/05/08 05:23:34;;;;;;;6.07;2.47;;;18.50;53.50;;;;;;4974959;28;93228;-65
2022/05/08 05:26:00;;;;;;;7.30;2.58;;;18.50;53.50;;;;;;4997362;28;93143;-65
2022/05/08 05:28:25;;;;;;;6.78;2.53;;;18.50;53.60;;;;;;4971879;28;94728;-65
2022/05/08 05:30:51;;;;;;;7.55;2.60;;;18.50;53.50;;;;;;4990018;28;92489;-65
2022/05/08 05:33:16;;;;;;;7.43;2.60;;;18.50;53.50;;;;;;4990252;28;92549;-65
2022/05/08 05:35:42;;;;;;;9.75;3.00;;;18.50;53.50;;;;;;4971715;28;94410;-64
2022/05/08 05:38:08;;;;;;;9.27;2.67;;;18.50;54.50;;;;;;4971228;28;94746;-65
2022/05/08 05:40:34;;;;;;;8.05;2.58;;;18.50;53.50;;;;;;4973808;28;92791;-65
2022/05/08 05:43:00;;;;;;;6.90;2.22;;;18.50;53.50;;;;;;4992699;28;92538;-65
2022/05/08 05:45:26;;;;;;;6.20;2.40;;;18.50;53.60;;;;;;4991930;28;95459;-64
2022/05/08 05:47:54;;;;;;;6.88;2.42;;;18.50;53.50;;;;;;4974511;28;94639;-65
2022/05/08 05:50:22;;;;;;;7.28;2.60;;;18.50;53.40;;;;;;4993473;28;92586;-65
2022/05/08 05:52:48;;;;;;;6.95;2.38;;;18.50;53.30;;;;;;4993599;28;93050;-65
2022/05/08 05:55:14;;;;;;;6.57;2.65;;;18.50;53.40;;;;;;4993105;28;93096;-65
2022/05/08 05:57:40;;;;;;;6.20;2.17;;;18.50;53.40;;;;;;4993092;28;93024;-65
2022/05/08 06:00:10;;;;;;;9.10;2.85;;;18.50;53.40;;;;;;4992831;28;93088;-65
2022/05/08 06:02:36;;;;;;;6.65;2.55;;;18.50;53.30;;;;;;4993300;28;92303;-65
2022/05/08 06:05:02;;;;;;;7.75;2.60;;;18.50;53.30;;;;;;4992795;28;92847;-65
2022/05/08 06:07:27;;;;;;;6.90;2.40;;;18.50;53.40;;;;;;4992730;28;94562;-65
2022/05/08 06:09:53;;;;;;;7.82;2.50;;;18.50;53.50;;;;;;4991549;28;95377;-65
2022/05/08 06:12:18;;;;;;;7.45;2.47;;;18.50;53.30;;;;;;4992215;28;93094;-65
2022/05/08 06:14:46;;;;;;;5.72;2.35;;;18.50;53.10;;;;;;4992928;28;93325;-65
2022/05/08 06:17:13;;;;;;;8.20;2.75;;;18.60;53.10;;;;;;4992731;28;92606;-65
2022/05/08 06:19:38;;;;;;;6.70;2.55;;;18.60;52.90;;;;;;4993131;28;92875;-65
2022/05/08 06:22:04;;;;;;;7.28;2.28;;;18.70;52.80;;;;;;4992203;28;92520;-65
2022/05/08 06:24:30;;;;;;;5.78;2.00;;;18.70;52.70;;;;;;4992768;28;93322;-66
2022/05/08 06:26:56;;;;;;;4.80;2.10;;;18.70;52.60;;;;;;4992136;28;92824;-66
2022/05/08 06:29:22;;;;;;;6.63;2.25;;;18.70;52.50;;;;;;4993051;28;92768;-66
2022/05/08 06:31:50;;;;;;;5.70;2.10;;;18.70;52.40;;;;;;4992373;28;92843;-65
2022/05/08 06:34:16;;;;;;;5.65;2.00;;;18.80;52.40;;;;;;4990130;28;95316;-66
2022/05/08 06:36:42;;;;;;;5.38;1.90;;;18.80;52.40;;;;;;4992392;28;95184;-65
2022/05/08 06:39:07;;;;;;;4.57;2.00;;;18.80;52.40;;;;;;4992587;28;93169;-66
2022/05/08 06:41:33;;;;;;;4.65;2.13;;;18.80;52.20;;;;;;4973783;28;92646;-66
2022/05/08 06:43:59;;;;;;;7.20;2.10;;;18.90;52.20;;;;;;4991372;28;92966;-66
2022/05/08 06:46:25;;;;;;;4.65;2.03;;;18.90;52.20;;;;;;4992089;28;92810;-66
2022/05/08 06:48:50;;;;;;;7.00;2.00;;;18.90;52.20;;;;;;4992791;28;92496;-64
2022/05/08 06:51:16;;;;;;;4.65;2.08;;;18.90;52.10;;;;;;4973524;28;91998;-65
2022/05/08 06:53:43;;;;;;;4.50;2.10;;;18.90;52.10;;;;;;4991690;28;92555;-65
2022/05/08 06:56:13;;;;;;;5.10;2.00;;;18.90;52.10;;;;;;4973532;28;93175;-64
2022/05/08 07:01:38;;;;;;;4.93;2.10;;;19.00;52.20;;;;;;4991581;28;92481;-64
2022/05/08 07:04:08;;;;;;;4.93;1.90;;;18.90;52.10;;;;;;4973905;28;94246;-65
2022/05/08 07:06:37;;;;;;;5.05;2.15;;;18.90;52.20;;;;;;4999914;28;93018;-65
2022/05/08 07:09:03;;;;;;;5.40;2.03;;;18.90;52.10;;;;;;4996984;28;92468;-64
2022/05/08 07:11:32;;;;;;;5.03;1.70;;;18.90;52.10;;;;;;4991731;28;92617;-64
2022/05/08 07:13:58;;;;;;;5.43;1.90;;;19.00;52.10;;;;;;4992339;28;92906;-65
2022/05/08 07:16:24;;;;;;;3.30;1.60;;;19.00;52.00;;;;;;4974402;28;95216;-65
2022/05/08 07:18:50;;;;;;;4.72;1.52;;;19.00;51.90;;;;;;4991974;28;92834;-65
2022/05/08 07:21:16;;;;;;;4.25;1.70;;;19.00;51.90;;;;;;4992803;28;92670;-65
2022/05/08 07:23:42;;;;;;;5.13;1.95;;;19.00;51.90;;;;;;4990962;28;95442;-66
2022/05/08 07:26:07;;;;;;;6.80;1.77;;;19.00;52.90;;;;;;4973580;28;99519;-65
2022/05/08 07:28:33;;;;;;;4.15;1.70;;;19.00;51.90;;;;;;4973781;28;92456;-65
2022/05/08 07:30:59;;;;;;;4.90;1.83;;;19.00;52.00;;;;;;4991196;28;92519;-65
2022/05/08 07:33:25;;;;;;;5.30;1.90;;;19.00;51.90;;;;;;4991554;28;93237;-65
2022/05/08 07:38:35;;;;;;;6.30;1.90;;;19.00;52.00;;;;;;4991507;28;92548;-65
2022/05/08 07:41:01;;;;;;;5.55;2.10;;;19.00;52.00;;;;;;4991778;28;91782;-66
2022/05/08 07:43:27;;;;;;;4.07;1.75;;;18.90;52.00;;;;;;4991167;28;93411;-65
2022/05/08 07:45:52;;;;;;;5.07;2.00;;;18.90;51.90;;;;;;4991295;28;93450;-65
2022/05/08 07:48:18;;;;;;;5.50;1.65;;;18.90;51.90;;;;;;4971943;28;95714;-66
2022/05/08 07:50:45;;;;;;;5.95;1.88;;;18.90;51.90;;;;;;4990455;28;92765;-65
2022/05/08 07:53:12;;;;;;;3.65;1.58;;;18.90;51.90;;;;;;4990839;28;93057;-64
2022/05/08 07:55:38;;;;;;;5.45;1.88;;;18.90;51.80;;;;;;4991716;28;92497;-65
2022/05/08 07:58:04;;;;;;;4.82;1.83;;;19.00;51.90;;;;;;4973141;28;93325;-65
2022/05/08 08:00:29;;;;;;;4.10;2.05;;;18.90;51.80;;;;;;4990832;28;92403;-65
2022/05/08 08:02:55;;;;;;;3.75;1.63;;;18.90;51.80;;;;;;4990617;28;93287;-65
2022/05/08 08:05:21;;;;;;;5.32;1.92;;;18.90;51.90;;;;;;4990568;28;94245;-65
2022/05/08 08:07:47;;;;;;;6.22;2.42;;;18.90;51.80;;;;;;4973139;28;92541;-66
2022/05/08 08:10:12;;;;;;;4.35;1.52;;;18.90;51.90;;;;;;4991325;28;93195;-66
2022/05/08 08:12:39;;;;;;;6.38;1.58;;;18.90;51.90;;;;;;4990084;28;95473;-64
2022/05/08 08:15:05;;;;;;;4.88;1.73;;;18.90;51.80;;;;;;4990462;28;95078;-63
2022/05/08 08:17:31;;;;;;;4.30;1.92;;;18.90;51.90;;;;;;4990771;28;92780;-65
2022/05/08 08:19:57;;;;;;;4.22;1.80;;;18.90;51.70;;;;;;4991357;28;92497;-65
2022/05/08 08:22:23;;;;;;;6.03;1.95;;;18.90;51.70;;;;;;4990792;28;93098;-64
2022/05/08 08:24:49;;;;;;;4.25;1.73;;;18.90;51.70;;;;;;4991568;28;93125;-64
2022/05/08 08:27:16;;;;;;;4.03;1.60;;;18.80;51.60;;;;;;4991037;28;92565;-64
2022/05/08 08:29:42;;;;;;;3.90;1.50;;;18.90;51.70;;;;;;4991045;28;91965;-64
2022/05/08 08:32:08;;;;;;;4.43;1.60;;;18.80;51.60;;;;;;4990940;28;93349;-65
2022/05/08 08:34:34;;;;;;;5.47;1.88;;;18.80;51.60;;;;;;4991115;28;92993;-64
2022/05/08 08:36:59;;;;;;;4.63;1.45;;;18.80;51.60;;;;;;4989654;28;95410;-64
2022/05/08 08:39:25;;;;;;;4.53;1.73;;;18.80;51.60;;;;;;4990650;28;92557;-65
2022/05/08 08:42:21;;;;;;;6.05;1.98;;;18.80;51.60;;;;;;4990450;28;93370;-65
2022/05/08 08:47:42;;;;;;;4.30;1.73;;;18.80;51.70;;;;;;4990529;28;92484;-64
2022/05/08 08:50:09;;;;;;;6.03;1.67;;;18.80;51.60;;;;;;4972171;28;92977;-65
2022/05/08 08:52:36;;;;;;;5.30;1.75;;;18.80;51.60;;;;;;4990001;28;92429;-64
2022/05/08 08:55:02;;;;;;;4.35;1.50;;;18.80;51.60;;;;;;4990155;28;93380;-65
2022/05/08 08:57:28;;;;;;;3.33;1.60;;;18.80;51.60;;;;;;4990477;28;92909;-64
2022/05/08 08:59:53;;;;;;;4.93;1.90;;;18.80;51.60;;;;;;4989919;28;92991;-64
2022/05/08 09:02:20;;;;;;;5.22;1.73;;;18.80;51.50;;;;;;4988570;28;95460;-64
2022/05/08 09:04:48;;;;;;;4.35;1.73;;;18.80;51.50;;;;;;4989419;28;95081;-64
2022/05/08 09:07:38;;;;;;;4.03;1.58;;;18.80;51.60;;;;;;4971864;28;93138;-64
2022/05/08 09:10:20;;;;;;;2.90;1.38;;;18.80;51.50;;;;;;4990413;28;92534;-64
2022/05/08 09:12:51;;;;;;;4.63;1.70;;;18.80;51.60;;;;;;4989984;28;92455;-65
2022/05/08 09:15:25;;;;;;;4.13;1.75;;;18.80;51.50;;;;;;4991603;28;92764;-65
2022/05/08 09:18:02;;;;;;;3.38;1.63;;;18.80;51.60;;;;;;4975285;28;92940;-65
2022/05/08 09:20:51;;;;;;;2.30;1.23;;;18.80;51.50;;;;;;4993317;28;92064;-65
2022/05/08 09:23:21;;;;;;;3.65;1.70;;;18.80;51.50;;;;;;4993453;28;93195;-65
2022/05/08 09:25:59;;;;;;;4.50;1.70;;;18.80;51.60;;;;;;4993438;28;92858;-64
2022/05/08 09:28:27;;;;;;;2.53;1.60;;;18.80;51.60;;;;;;4992043;28;94910;-65
2022/05/08 09:30:54;;;;;;;4.15;1.63;;;18.80;51.50;;;;;;4993600;28;92832;-65
2022/05/08 09:33:24;;;;;;;4.07;1.60;;;18.80;51.50;;;;;;4975116;28;95386;-65
2022/05/08 09:35:50;;;;;;;4.63;1.60;;;18.80;51.40;;;;;;4993899;28;92828;-64
2022/05/08 09:38:15;;;;;;;3.97;1.60;;;18.80;51.40;;;;;;4993681;28;92810;-64
2022/05/08 09:40:41;;;;;;;3.63;1.60;;;18.80;51.50;;;;;;4993342;28;92663;-64
2022/05/08 09:43:27;;;;;;;4.13;1.63;;;18.80;51.50;;;;;;4993719;28;93191;-64
2022/05/08 09:46:00;;;;;;;4.45;1.60;;;18.80;51.50;;;;;;4993888;28;92686;-64
2022/05/08 09:48:27;;;;;;;4.03;1.27;;;18.80;51.40;;;;;;4992995;28;92821;-64
2022/05/08 09:50:58;;;;;;;3.85;1.70;;;18.80;51.40;;;;;;4993214;28;92895;-65
2022/05/08 09:53:25;;;;;;;3.33;1.42;;;18.80;51.00;;;;;;4973127;28;97571;-65
2022/05/08 09:55:54;;;;;;;4.18;1.67;;;18.90;50.80;;;;;;4993457;28;95222;-64
2022/05/08 09:58:21;;;;;;;5.07;1.70;;;18.90;50.40;;;;;;4974618;28;92839;-65
2022/05/08 10:00:48;;;;;;;4.13;1.65;;;18.90;50.40;;;;;;4974241;28;92655;-64
2022/05/08 10:03:15;;;;;;;3.75;1.40;;;18.90;50.30;;;;;;4992955;28;93573;-65
2022/05/08 10:05:44;;;;;;;3.08;1.35;;;18.90;50.20;;;;;;4992770;28;92587;-65
2022/05/08 10:08:13;;;;;;;3.55;1.60;;;18.90;50.10;;;;;;4993018;28;93084;-65
2022/05/08 10:13:54;;;;;;;5.47;1.90;;;18.90;49.80;;;;;;4992702;28;93074;-64
2022/05/08 10:16:49;;;;;;;4.00;1.67;;;19.00;49.80;;;;;;4992738;28;93266;-64
2022/05/08 10:19:18;;;;;;;4.85;1.70;;;19.00;49.70;;;;;;4973709;28;94920;-65
2022/05/08 10:22:09;;;;;;;5.03;1.52;;;19.00;49.70;;;;;;4993142;28;92970;-65
2022/05/08 10:24:35;;;;;;;3.90;1.35;;;19.00;49.50;;;;;;4993118;28;93707;-65
2022/05/08 10:27:16;;;;;;;4.20;1.83;;;19.00;49.50;;;;;;4992451;28;92731;-65
2022/05/08 10:29:50;;;;;;;5.55;1.92;;;19.10;49.50;;;;;;4993650;28;92951;-65
2022/05/08 10:32:31;;;;;;;3.03;1.40;;;19.10;49.50;;;;;;4992986;28;92537;-65
2022/05/08 10:35:20;;;;;;;3.38;1.45;;;19.10;49.40;;;;;;4991167;28;93166;-65
2022/05/08 10:37:47;;;;;;;2.95;1.20;;;19.10;49.30;;;;;;4964120;28;95452;-65
2022/05/08 10:40:22;;;;;;;4.57;1.50;;;19.10;49.40;;;;;;4992270;28;92550;-65
2022/05/08 10:42:58;;;;;;;4.10;1.45;;;19.10;49.30;;;;;;4992660;28;93266;-65
2022/05/08 10:45:33;;;;;;;5.18;1.70;;;19.10;49.40;;;;;;4990324;28;95409;-65
2022/05/08 10:48:08;;;;;;;3.05;1.40;;;19.10;49.40;;;;;;4973182;28;97046;-65
2022/05/08 10:50:34;;;;;;;3.50;1.40;;;19.10;49.40;;;;;;4992728;28;92552;-64
2022/05/08 10:53:00;;;;;;;3.45;1.40;;;19.20;49.50;;;;;;4992872;28;92775;-64
2022/05/08 10:55:27;;;;;;;3.42;1.27;;;19.20;49.40;;;;;;4991949;28;93299;-64
2022/05/08 10:57:54;;;;;;;3.38;1.30;;;19.20;50.40;;;;;;4991048;28;93614;-64
2022/05/08 11:00:28;;;;;;;3.53;1.30;;;19.20;49.40;;;;;;4992020;28;93017;-63
2022/05/08 11:02:59;;;;;;;3.70;1.40;;;19.20;49.30;;;;;;4993086;28;91851;-64
2022/05/08 11:05:29;;;;;;;4.15;1.33;;;19.20;49.40;;;;;;4991500;28;93026;-64
2022/05/08 11:07:57;;;;;;;3.65;1.40;;;19.20;49.50;;;;;;4991361;28;92873;-64
2022/05/08 11:10:27;;;;;;;4.45;1.50;;;19.20;49.50;;;;;;4990650;28;95021;-65
2022/05/08 11:13:13;;;;;;;3.25;1.40;;;19.30;49.60;;;;;;4992658;28;92970;-65
2022/05/08 11:15:42;;;;;;;3.85;1.50;;;19.20;49.50;;;;;;4992043;28;93218;-65
2022/05/08 11:18:16;;;;;;;4.72;1.75;;;19.20;49.70;;;;;;4991937;28;92589;-65
2022/05/08 11:20:49;;;;;;;5.28;1.33;;;19.30;49.80;;;;;;4992102;28;92450;-66
2022/05/08 11:23:16;;;;;;;3.33;1.60;;;19.30;49.80;;;;;;4992354;28;93115;-66
2022/05/08 11:25:45;;;;;;;4.28;1.23;;;19.20;49.70;;;;;;4991726;28;93711;-65
2022/05/08 11:28:15;;;;;;;6.05;1.60;;;19.20;49.70;;;;;;4991171;28;92528;-64
2022/05/08 11:30:42;;;;;;;4.65;1.40;;;19.30;49.80;;;;;;4973317;28;92827;-65
2022/05/08 11:36:08;;;;;;;2.85;1.27;;;19.30;49.90;;;;;;4990885;28;95830;-65
2022/05/08 11:38:57;;;;;;;2.38;1.30;;;19.30;50.90;;;;;;4972867;28;97519;-64
2022/05/08 11:41:33;;;;;;;4.40;1.45;;;19.30;50.00;;;;;;4991361;28;92417;-65
2022/05/08 11:44:03;;;;;;;2.90;1.40;;;19.30;50.00;;;;;;4973301;28;93256;-66
2022/05/08 11:46:33;;;;;;;3.63;1.40;;;19.30;50.10;;;;;;4991124;28;93215;-65
2022/05/08 11:49:00;;;;;;;2.70;1.40;;;19.30;50.10;;;;;;4990628;28;92796;-65
2022/05/08 11:51:40;;;;;;;2.92;1.38;;;19.30;50.20;;;;;;4990602;28;92826;-65
2022/05/08 11:54:05;;;;;;;3.92;1.50;;;19.30;50.10;;;;;;4991022;28;91828;-65
2022/05/08 11:56:32;;;;;;;2.75;1.35;;;19.30;50.10;;;;;;4991483;28;93001;-65
2022/05/08 11:59:00;;;;;;;2.30;1.23;;;19.30;50.20;;;;;;4991085;28;92510;-64
2022/05/08 12:01:41;;;;;;;3.70;1.70;;;19.30;50.20;;;;;;4989946;28;96242;-64
2022/05/08 12:04:26;;;;;;;3.40;1.38;;;19.30;50.20;;;;;;4991280;28;92445;-64
2022/05/08 12:06:58;;;;;;;2.92;1.35;;;19.30;50.20;;;;;;4973139;28;96166;-64
2022/05/08 12:09:25;;;;;;;1.88;1.00;;;19.30;50.30;;;;;;4991179;28;92644;-65
2022/05/08 12:11:50;;;;;;;2.60;1.30;;;19.30;50.30;;;;;;4992086;28;93115;-64
2022/05/08 12:14:16;;;;;;;3.20;1.40;;;19.30;50.30;;;;;;4991260;28;93102;-65
2022/05/08 12:17:00;;;;;;;2.17;1.20;;;19.30;50.20;;;;;;4991147;28;92995;-65
2022/05/08 12:19:25;;;;;;;3.33;1.30;;;19.30;50.10;;;;;;4991092;28;93053;-65
2022/05/08 12:21:51;;;;;;;2.17;1.30;;;19.30;50.20;;;;;;4991086;28;92564;-65
2022/05/08 12:24:17;;;;;;;2.80;1.48;;;19.30;50.20;;;;;;4990904;28;92610;-65
2022/05/08 12:26:44;;;;;;;3.25;1.30;;;19.30;50.20;;;;;;4971398;28;97183;-64
2022/05/08 12:29:22;;;;;;;2.42;1.40;;;19.30;50.20;;;;;;4990757;28;95171;-65
2022/05/08 12:31:51;;;;;;;3.92;1.45;;;19.30;50.00;;;;;;4991209;28;92608;-64
2022/05/08 12:34:19;;;;;;;2.80;1.35;;;19.30;50.10;;;;;;4990735;28;92590;-66
2022/05/08 12:36:45;;;;;;;2.85;1.42;;;19.30;50.10;;;;;;4990903;28;93072;-65
2022/05/08 12:39:10;;;;;;;4.40;1.38;;;19.30;50.10;;;;;;4990579;28;92911;-65
2022/05/08 12:41:37;;;;;;;4.75;1.52;;;19.30;50.10;;;;;;4990391;28;92433;-65
2022/05/08 12:44:04;;;;;;;4.78;1.25;;;19.30;50.10;;;;;;4991448;28;91819;-65
2022/05/08 12:46:30;;;;;;;2.45;1.17;;;19.40;50.10;;;;;;4990127;28;93256;-65
2022/05/08 12:49:02;;;;;;;2.88;1.30;;;19.30;50.00;;;;;;4989860;28;95098;-65
2022/05/08 12:51:31;;;;;;;3.65;1.35;;;19.30;50.00;;;;;;4990155;28;95311;-65
2022/05/08 12:53:57;;;;;;;4.10;1.50;;;19.30;50.00;;;;;;4991495;28;92420;-65
2022/05/08 12:56:24;;;;;;;3.92;1.55;;;19.40;50.10;;;;;;4989362;28;93128;-65
2022/05/08 13:01:34;;;;;;;3.60;1.67;;;19.40;50.10;;;;;;4991159;28;93418;-65
2022/05/08 13:03:59;;;;;;;3.75;1.63;;;19.30;50.00;;;;;;4989634;28;92580;-66
2022/05/08 13:06:25;;;;;;;3.33;1.30;;;19.40;50.10;;;;;;4990449;28;93312;-65
2022/05/08 13:08:51;;;;;;;2.58;1.23;;;19.30;50.00;;;;;;4990269;28;91727;-65
2022/05/08 13:11:17;;;;;;;3.60;1.42;;;19.30;50.00;;;;;;4990347;28;92530;-66
2022/05/08 13:13:43;;;;;;;2.53;1.33;;;19.40;50.00;;;;;;4990770;28;92489;-66
2022/05/08 13:16:12;;;;;;;2.15;1.13;;;19.40;50.00;;;;;;4971052;28;96335;-66